Time;durP1;ratioP1;P1;durP2;ratioP2;P2;SDS_P1;SDS_P2;PMS_P1;PMS_P2;Temp;Humidity;BMP_temperature;BMP_pressure;BME280_temperature;BME280_humidity;BME280_pressure;Samples;Min_cycle;Max_cycle;Signal;HPM_P1;HPM_P2
2023/05/24 00:01:27;;;;;;;;;;;;;;;8.61;91.53;102381.16;10545602;28;19928;-67
2023/05/24 00:06:33;;;;;;;;;;;;;;;8.58;92.03;102376.00;10543525;28;19931;-67
2023/05/24 00:11:35;;;;;;;;;;;;;;;8.33;95.47;102373.06;10535964;28;19928;-66
2023/05/24 00:16:38;;;;;;;;;;;;;;;8.44;94.19;102360.66;10544347;28;19924;-67
2023/05/24 00:21:40;;;;;;;;;;;;;;;8.31;95.30;102352.22;10543811;28;19924;-67
2023/05/24 00:26:42;;;;;;;;;;;;;;;8.35;94.54;102351.28;10543829;28;19924;-66
2023/05/24 00:31:44;;;;;;;;;;;;;;;8.36;94.47;102349.50;10525705;28;19924;-67
2023/05/24 00:36:47;;;;;;;;;;;;;;;8.08;94.51;102344.91;10544265;28;19924;-67
2023/05/24 00:41:49;;;;;;;;;;;;;;;8.09;95.99;102343.19;10543327;28;19931;-66
2023/05/24 00:46:51;;;;;;;;;;;;;;;8.14;95.68;102334.34;10542288;28;20301;-66
2023/05/24 00:51:53;;;;;;;;;;;;;;;7.89;96.63;102347.06;10524160;28;20252;-67
2023/05/24 00:56:56;;;;;;;;;;;;;;;7.83;97.43;102339.38;10525371;28;19928;-66
2023/05/24 01:01:58;;;;;;;;;;;;;;;7.80;97.37;102329.00;10524537;28;19928;-67
2023/05/24 01:07:18;;;;;;;;;;;;;;;7.91;95.69;102319.19;10524918;28;19924;-67
2023/05/24 01:12:20;;;;;;;;;;;;;;;7.75;97.40;102317.81;10541017;28;19924;-66
2023/05/24 01:17:36;;;;;;;;;;;;;;;7.78;97.48;102320.34;10541652;28;19930;-66
2023/05/24 01:22:45;;;;;;;;;;;;;;;7.61;98.52;102325.91;10523516;28;19923;-66
2023/05/24 01:27:47;;;;;;;;;;;;;;;7.71;99.90;102327.44;10524202;28;19924;-66
2023/05/24 01:32:49;;;;;;;;;;;;;;;7.82;96.85;102335.91;10522520;28;20022;-66
2023/05/24 01:37:51;;;;;;;;;;;;;;;7.68;98.94;102329.25;10541304;28;20321;-67
2023/05/24 01:42:58;;;;;;;;;;;;;;;7.56;100.00;102331.22;10521617;28;20007;-67
2023/05/24 01:48:04;;;;;;;;;;;;;;;7.81;98.92;102328.13;10523295;28;19930;-66
2023/05/24 01:53:07;;;;;;;;;;;;;;;7.48;100.00;102327.94;10527559;22;19960;-64
2023/05/24 01:58:09;;;;;;;;;;;;;;;7.57;100.00;102327.72;10523036;28;19924;-64
2023/05/24 02:03:12;;;;;;;;;;;;;;;7.65;100.00;102327.59;10523030;28;19924;-64
2023/05/24 02:08:14;;;;;;;;;;;;;;;7.60;99.93;102319.84;10521449;28;20267;-64
2023/05/24 02:13:18;;;;;;;;;;;;;;;7.76;100.00;102332.56;10521868;28;19928;-64
2023/05/24 02:18:21;;;;;;;;;;;;;;;7.48;100.00;102329.66;10540552;28;19924;-64
2023/05/24 02:23:23;;;;;;;;;;;;;;;7.52;100.00;102326.13;10540293;28;19971;-64
2023/05/24 02:28:25;;;;;;;;;;;;;;;7.48;100.00;102337.47;10521410;28;19924;-64
2023/05/24 02:33:28;;;;;;;;;;;;;;;7.47;100.00;102341.00;10538970;28;19930;-64
2023/05/24 02:38:31;;;;;;;;;;;;;;;7.57;100.00;102337.31;10519371;28;19939;-64
2023/05/24 02:43:33;;;;;;;;;;;;;;;7.52;100.00;102336.56;10521425;28;19931;-64
2023/05/24 02:48:36;;;;;;;;;;;;;;;7.69;100.00;102334.44;10539677;28;19926;-64
2023/05/24 02:53:38;;;;;;;;;;;;;;;8.04;100.00;102338.06;10520707;28;19924;-64
2023/05/24 02:58:40;;;;;;;;;;;;;;;8.29;100.00;102340.97;10521132;28;20375;-64
2023/05/24 03:03:42;;;;;;;;;;;;;;;8.33;100.00;102332.16;10539554;28;19924;-64
2023/05/24 03:08:45;;;;;;;;;;;;;;;8.51;100.00;102317.00;10537825;28;19923;-64
2023/05/24 03:13:48;;;;;;;;;;;;;;;8.44;100.00;102308.47;10580338;28;19934;-64
2023/05/24 03:18:50;;;;;;;;;;;;;;;8.45;100.00;102309.31;10580785;28;19946;-64
2023/05/24 03:23:53;;;;;;;;;;;;;;;8.33;100.00;102320.88;10568148;28;19924;-64
2023/05/24 03:28:55;;;;;;;;;;;;;;;8.00;100.00;102310.31;10587043;28;19924;-64
2023/05/24 03:33:57;;;;;;;;;;;;;;;7.82;100.00;102304.63;10587449;28;19954;-64
2023/05/24 03:39:00;;;;;;;;;;;;;;;7.91;100.00;102303.56;10588156;28;19930;-64
2023/05/24 03:44:02;;;;;;;;;;;;;;;7.96;100.00;102299.09;10588648;28;19924;-64
2023/05/24 03:49:05;;;;;;;;;;;;;;;8.23;100.00;102304.56;10585707;28;20401;-64
2023/05/24 03:54:07;;;;;;;;;;;;;;;8.02;100.00;102305.94;10599348;27;19928;-64
2023/05/24 03:59:10;;;;;;;;;;;;;;;8.12;100.00;102299.63;10611862;27;20396;-64
2023/05/24 04:04:12;;;;;;;;;;;;;;;8.11;100.00;102300.50;10615029;27;19931;-64
2023/05/24 04:09:14;;;;;;;;;;;;;;;8.27;100.00;102301.00;10607829;27;19923;-64
2023/05/24 04:14:16;;;;;;;;;;;;;;;8.34;100.00;102299.13;10596427;27;19923;-64
2023/05/24 04:19:18;;;;;;;;;;;;;;;8.17;100.00;102295.16;10629064;27;20392;-64
2023/05/24 04:24:21;;;;;;;;;;;;;;;8.73;100.00;102296.44;10620794;27;19923;-64
2023/05/24 04:29:25;;;;;;;;;;;;;;;8.73;100.00;102306.88;10619648;27;19930;-64
2023/05/24 04:34:28;;;;;;;;;;;;;;;8.83;100.00;102320.56;10628104;27;19963;-64
2023/05/24 04:39:30;;;;;;;;;;;;;;;8.84;100.00;102315.31;10628281;27;19971;-64
2023/05/24 04:44:33;;;;;;;;;;;;;;;8.89;100.00;102325.63;10614659;27;19931;-64
2023/05/24 04:49:35;;;;;;;;;;;;;;;8.96;100.00;102332.41;10623476;27;19924;-64
2023/05/24 04:54:37;;;;;;;;;;;;;;;9.06;100.00;102327.78;10619953;27;19927;-64
2023/05/24 04:59:39;;;;;;;;;;;;;;;9.07;100.00;102339.97;10626486;27;19924;-64
2023/05/24 05:04:42;;;;;;;;;;;;;;;9.27;100.00;102335.03;10627435;27;20263;-64
2023/05/24 05:09:44;;;;;;;;;;;;;;;9.30;100.00;102339.34;10616594;27;20382;-64
2023/05/24 05:14:46;;;;;;;;;;;;;;;9.40;100.00;102334.72;10626797;27;19923;-63
2023/05/24 05:19:48;;;;;;;;;;;;;;;9.55;100.00;102331.69;10626641;27;20327;-64
2023/05/24 05:24:50;;;;;;;;;;;;;;;9.59;100.00;102329.81;10611052;27;20014;-64
2023/05/24 05:29:53;;;;;;;;;;;;;;;9.23;100.00;102337.78;10610994;27;19929;-64
2023/05/24 05:34:55;;;;;;;;;;;;;;;9.29;100.00;102330.63;10626653;27;19923;-64
2023/05/24 05:39:57;;;;;;;;;;;;;;;9.55;100.00;102325.56;10626501;27;19927;-64
2023/05/24 05:44:59;;;;;;;;;;;;;;;9.79;100.00;102326.63;10619034;27;19930;-64
2023/05/24 05:50:02;;;;;;;;;;;;;;;9.70;100.00;102324.28;10602131;27;19923;-64
2023/05/24 05:55:04;;;;;;;;;;;;;;;10.20;100.00;102327.13;10614142;27;19923;-64
2023/05/24 06:00:07;;;;;;;;;;;;;;;10.29;100.00;102331.19;10612179;27;20297;-64
2023/05/24 06:05:09;;;;;;;;;;;;;;;10.40;100.00;102329.97;10595424;27;19930;-63
2023/05/24 06:10:12;;;;;;;;;;;;;;;10.98;100.00;102328.97;10604901;27;20370;-63
2023/05/24 06:15:14;;;;;;;;;;;;;;;10.90;100.00;102339.69;10621141;27;19923;-63
2023/05/24 06:20:16;;;;;;;;;;;;;;;11.22;100.00;102342.97;10625007;27;19924;-63
2023/05/24 06:25:19;;;;;;;;;;;;;;;11.20;100.00;102339.53;10625086;27;19923;-63
2023/05/24 06:30:22;;;;;;;;;;;;;;;11.10;100.00;102352.13;10621283;27;19975;-63
2023/05/24 06:35:24;;;;;;;;;;;;;;;11.66;98.95;102373.75;10613771;28;20298;-63
2023/05/24 06:40:26;;;;;;;;;;;;;;;11.83;97.44;102365.25;10615074;28;19923;-63
2023/05/24 06:45:28;;;;;;;;;;;;;;;11.79;93.52;102371.53;10621959;28;20007;-63
2023/05/24 06:50:31;;;;;;;;;;;;;;;12.51;90.63;102375.75;10610509;28;19924;-63
2023/05/24 06:55:33;;;;;;;;;;;;;;;13.06;86.52;102373.47;10618723;27;19946;-63
2023/05/24 07:00:36;;;;;;;;;;;;;;;12.81;86.74;102377.16;10614187;27;19949;-63
2023/05/24 07:05:38;;;;;;;;;;;;;;;13.25;84.40;102370.91;10632032;27;20382;-63
2023/05/24 07:10:40;;;;;;;;;;;;;;;12.90;83.61;102370.66;10632705;27;19923;-63
2023/05/24 07:15:43;;;;;;;;;;;;;;;13.20;82.42;102373.72;10632318;27;19924;-63
2023/05/24 07:20:45;;;;;;;;;;;;;;;13.50;81.38;102381.25;10613477;27;19974;-63
2023/05/24 07:25:48;;;;;;;;;;;;;;;13.48;79.73;102380.47;10631145;27;19927;-63
2023/05/24 07:30:50;;;;;;;;;;;;;;;13.20;79.34;102372.91;10631592;27;19929;-63
2023/05/24 07:35:53;;;;;;;;;;;;;;;13.26;80.69;102374.38;10623163;27;19924;-63
2023/05/24 07:40:58;;;;;;;;;;;;;;;13.59;81.47;102377.34;10631271;27;19923;-63
2023/05/24 07:46:00;;;;;;;;;;;;;;;14.52;76.32;102371.22;10612288;27;20362;-63
2023/05/24 07:51:03;;;;;;;;;;;;;;;15.23;74.10;102365.91;10630926;27;19969;-63
2023/05/24 07:56:06;;;;;;;;;;;;;;;15.72;71.08;102365.09;10629815;27;20339;-63
2023/05/24 08:01:09;;;;;;;;;;;;;;;15.95;70.56;102365.66;10630052;27;20002;-63
2023/05/24 08:06:11;;;;;;;;;;;;;;;14.61;70.47;102359.44;10629529;27;20025;-63
2023/05/24 08:11:13;;;;;;;;;;;;;;;15.35;70.00;102356.50;10630101;27;20018;-63
2023/05/24 08:16:17;;;;;;;;;;;;;;;16.13;69.01;102358.50;10629284;27;19930;-63
2023/05/24 08:21:19;;;;;;;;;;;;;;;15.41;69.37;102356.16;10629808;27;19924;-63
2023/05/24 08:26:23;;;;;;;;;;;;;;;14.67;71.46;102356.47;10628981;27;19924;-63
2023/05/24 08:31:25;;;;;;;;;;;;;;;16.79;66.57;102356.50;10629429;27;19930;-63
2023/05/24 08:36:27;;;;;;;;;;;;;;;16.82;61.94;102341.28;10610101;27;20296;-64
2023/05/24 08:41:32;;;;;;;;;;;;;;;16.99;61.83;102347.41;10610099;27;19923;-64
2023/05/24 08:46:34;;;;;;;;;;;;;;;17.19;64.91;102348.84;10627976;27;19923;-64
2023/05/24 08:51:37;;;;;;;;;;;;;;;15.81;64.44;102350.56;10627873;27;20324;-64
2023/05/24 08:56:40;;;;;;;;;;;;;;;15.24;64.92;102345.66;10627577;27;20015;-64
2023/05/24 09:01:42;;;;;;;;;;;;;;;15.51;66.58;102351.25;10628075;27;19938;-63
2023/05/24 09:06:44;;;;;;;;;;;;;;;15.97;64.57;102353.22;10627691;27;19924;-64
2023/05/24 09:11:48;;;;;;;;;;;;;;;15.92;66.96;102342.91;10608950;27;19927;-64
2023/05/24 09:16:50;;;;;;;;;;;;;;;15.73;67.82;102342.19;10626838;27;19923;-63
2023/05/24 09:21:53;;;;;;;;;;;;;;;15.44;66.92;102349.88;10625650;27;19923;-63
2023/05/24 09:26:55;;;;;;;;;;;;;;;15.71;68.19;102352.81;10608195;27;20304;-63
2023/05/24 09:31:57;;;;;;;;;;;;;;;16.58;65.88;102348.88;10626209;27;20300;-63
2023/05/24 09:37:00;;;;;;;;;;;;;;;16.37;63.25;102347.47;10626637;27;19924;-64
2023/05/24 09:42:03;;;;;;;;;;;;;;;17.20;62.35;102347.91;10625923;27;19958;-64
2023/05/24 09:47:05;;;;;;;;;;;;;;;16.87;62.09;102343.69;10625430;27;19947;-64
2023/05/24 09:52:07;;;;;;;;;;;;;;;16.89;61.71;102336.50;10626204;27;19934;-64
2023/05/24 09:57:10;;;;;;;;;;;;;;;16.23;61.34;102343.81;10625180;27;19970;-64
2023/05/24 10:02:12;;;;;;;;;;;;;;;16.71;61.75;102335.81;10625747;27;19924;-64
2023/05/24 10:07:15;;;;;;;;;;;;;;;16.83;62.71;102347.44;10606713;27;20388;-64
2023/05/24 10:12:17;;;;;;;;;;;;;;;16.95;64.85;102349.38;10607313;27;20019;-64
2023/05/24 10:17:20;;;;;;;;;;;;;;;16.05;62.64;102353.63;10589590;27;20263;-63
2023/05/24 10:22:22;;;;;;;;;;;;;;;16.30;61.97;102339.03;10625220;27;19923;-64
2023/05/24 10:27:27;;;;;;;;;;;;;;;16.15;63.94;102344.28;10606151;27;19924;-63
2023/05/24 10:32:31;;;;;;;;;;;;;;;15.53;65.95;102349.41;10606155;27;20011;-63
2023/05/24 10:37:33;;;;;;;;;;;;;;;15.64;64.58;102343.53;10589958;28;19923;-63
2023/05/24 10:42:35;;;;;;;;;;;;;;;15.89;64.70;102347.50;10624822;28;19923;-64
2023/05/24 10:47:37;;;;;;;;;;;;;;;15.74;64.52;102347.38;10606275;28;20009;-63
2023/05/24 10:52:40;;;;;;;;;;;;;;;16.49;63.34;102341.47;10624305;28;19923;-63
2023/05/24 10:57:42;;;;;;;;;;;;;;;16.46;63.53;102331.94;10624412;28;19930;-64
2023/05/24 11:02:48;;;;;;;;;;;;;;;17.07;62.06;102334.56;10623801;28;19924;-64
2023/05/24 11:07:57;;;;;;;;;;;;;;;16.67;60.01;102323.69;10623501;28;19984;-64
2023/05/24 11:13:00;;;;;;;;;;;;;;;17.83;61.20;102320.97;10624211;28;19930;-63
2023/05/24 11:18:05;;;;;;;;;;;;;;;18.71;58.78;102323.22;10606101;28;19923;-64
2023/05/24 11:23:08;;;;;;;;;;;;;;;19.73;54.57;102313.47;10624134;28;19928;-64
2023/05/24 11:28:11;;;;;;;;;;;;;;;17.49;56.48;102327.56;10623686;28;19930;-64
2023/05/24 11:33:14;;;;;;;;;;;;;;;18.35;54.50;102313.25;10605512;28;19923;-66
2023/05/24 11:38:17;;;;;;;;;;;;;;;21.15;50.74;102295.75;10594502;28;19924;-66
2023/05/24 11:43:20;;;;;;;;;;;;;;;20.25;49.79;102302.69;10566677;28;19924;-66
2023/05/24 11:48:23;;;;;;;;;;;;;;;17.91;52.41;102311.75;10590183;27;20018;-66
2023/05/24 11:53:25;;;;;;;;;;;;;;;17.66;58.00;102318.56;10584410;28;20035;-66
2023/05/24 11:58:29;;;;;;;;;;;;;;;17.56;57.38;102310.34;10577231;28;19927;-66
2023/05/24 12:03:31;;;;;;;;;;;;;;;18.03;57.67;102307.44;10547466;28;19924;-66
2023/05/24 12:08:33;;;;;;;;;;;;;;;18.88;55.99;102300.88;10567900;28;20007;-66
2023/05/24 12:13:36;;;;;;;;;;;;;;;19.37;53.23;102293.09;10585643;28;19930;-66
2023/05/24 12:18:39;;;;;;;;;;;;;;;18.96;55.16;102287.06;10585530;28;20405;-66
2023/05/24 12:23:49;;;;;;;;;;;;;;;18.60;55.77;102290.41;10568045;28;19970;-66
2023/05/24 12:28:52;;;;;;;;;;;;;;;19.42;55.00;102286.47;10563827;28;19924;-66
2023/05/24 12:33:55;;;;;;;;;;;;;;;19.40;54.51;102291.06;10541568;28;19924;-66
2023/05/24 12:38:58;;;;;;;;;;;;;;;17.98;54.89;102284.72;10547078;28;19959;-66
2023/05/24 12:44:00;;;;;;;;;;;;;;;18.82;55.35;102281.84;10553215;28;20034;-66
2023/05/24 12:49:03;;;;;;;;;;;;;;;19.48;53.73;102288.72;10581042;28;19927;-66
2023/05/24 12:54:06;;;;;;;;;;;;;;;20.41;51.14;102279.28;10562866;27;20374;-66
2023/05/24 12:59:08;;;;;;;;;;;;;;;20.07;49.09;102271.16;10627809;27;19949;-66
2023/05/24 13:04:10;;;;;;;;;;;;;;;19.33;53.26;102284.47;10609879;27;19923;-66
2023/05/24 13:09:13;;;;;;;;;;;;;;;17.20;54.59;102274.66;10627792;27;19930;-66
2023/05/24 13:14:15;;;;;;;;;;;;;;;18.31;54.85;102272.00;10609450;27;19923;-66
2023/05/24 13:19:18;;;;;;;;;;;;;;;17.92;56.80;102273.69;10592598;27;19959;-66
2023/05/24 13:24:20;;;;;;;;;;;;;;;17.40;57.62;102280.47;10627121;27;19957;-66
2023/05/24 13:29:22;;;;;;;;;;;;;;;17.25;56.88;102282.31;10626325;27;20010;-66
2023/05/24 13:34:31;;;;;;;;;;;;;;;16.98;58.25;102274.25;10609490;27;19930;-66
2023/05/24 13:39:34;;;;;;;;;;;;;;;17.45;58.21;102276.59;10626113;27;19924;-66
2023/05/24 13:44:36;;;;;;;;;;;;;;;16.60;59.43;102278.25;10625804;27;20401;-65
2023/05/24 13:49:38;;;;;;;;;;;;;;;16.80;60.86;102290.28;10559351;28;19928;-65
2023/05/24 13:54:41;;;;;;;;;;;;;;;16.74;60.55;102288.00;10574698;28;19923;-65
2023/05/24 13:59:43;;;;;;;;;;;;;;;16.94;59.25;102292.09;10575182;28;20010;-65
2023/05/24 14:04:45;;;;;;;;;;;;;;;16.68;59.87;102281.28;10582481;28;19924;-65
2023/05/24 14:09:47;;;;;;;;;;;;;;;16.59;61.24;102289.75;10564287;22;19966;-62
2023/05/24 14:14:50;;;;;;;;;;;;;;;16.49;61.79;102285.94;10523029;28;19943;-63
2023/05/24 14:19:55;;;;;;;;;;;;;;;16.46;61.13;102287.00;10540013;28;19950;-63
2023/05/24 14:24:58;;;;;;;;;;;;;;;15.86;61.36;102289.56;10522482;28;19924;-62
2023/05/24 14:30:00;;;;;;;;;;;;;;;16.21;60.91;102284.94;10527726;28;20341;-62
2023/05/24 14:35:03;;;;;;;;;;;;;;;16.22;63.57;102288.41;10539350;28;20367;-63
2023/05/24 14:40:05;;;;;;;;;;;;;;;15.91;60.49;102287.53;10540214;28;19924;-63
2023/05/24 14:45:08;;;;;;;;;;;;;;;16.07;62.15;102295.41;10521999;28;19924;-63
2023/05/24 14:50:10;;;;;;;;;;;;;;;15.56;63.76;102293.78;10539190;28;19932;-62
2023/05/24 14:55:13;;;;;;;;;;;;;;;16.01;61.90;102296.63;10521222;28;20391;-63
2023/05/24 15:00:16;;;;;;;;;;;;;;;16.15;62.41;102301.13;10539832;28;19924;-62
2023/05/24 15:05:21;;;;;;;;;;;;;;;16.47;60.94;102291.31;10522713;28;19962;-62
2023/05/24 15:10:23;;;;;;;;;;;;;;;17.21;60.17;102299.31;10539018;28;19928;-62
2023/05/24 15:15:27;;;;;;;;;;;;;;;17.22;58.48;102295.72;10534473;28;19962;-62
2023/05/24 15:20:29;;;;;;;;;;;;;;;17.52;60.02;102292.13;10519140;28;19924;-62
2023/05/24 15:25:32;;;;;;;;;;;;;;;17.09;59.48;102300.91;10546642;28;19924;-62
2023/05/24 15:30:34;;;;;;;;;;;;;;;16.45;63.06;102300.31;10528408;28;19924;-62
2023/05/24 15:35:36;;;;;;;;;;;;;;;16.02;64.60;102313.31;10531089;28;20302;-63
2023/05/24 15:40:41;;;;;;;;;;;;;;;16.24;62.63;102311.19;10545066;28;20280;-62
2023/05/24 15:45:44;;;;;;;;;;;;;;;16.13;62.37;102309.13;10545835;28;20362;-62
2023/05/24 15:50:46;;;;;;;;;;;;;;;16.08;63.35;102311.19;10527273;28;19924;-62
2023/05/24 15:56:08;;;;;;;;;;;;;;;15.72;62.71;102314.09;10538671;28;20432;-63
2023/05/24 16:01:11;;;;;;;;;;;;;;;15.85;63.10;102314.28;10537689;28;19928;-63
2023/05/24 16:06:13;;;;;;;;;;;;;;;16.01;63.40;102309.00;10536340;28;20294;-62
2023/05/24 16:11:15;;;;;;;;;;;;;;;15.75;63.85;102317.44;10540821;28;20003;-63
2023/05/24 16:16:18;;;;;;;;;;;;;;;16.33;63.29;102309.78;10545359;28;20007;-63
2023/05/24 16:21:20;;;;;;;;;;;;;;;17.39;59.93;102300.81;10526804;28;19989;-63
2023/05/24 16:26:22;;;;;;;;;;;;;;;17.81;57.59;102292.91;10537375;28;20366;-63
2023/05/24 16:31:25;;;;;;;;;;;;;;;18.21;57.82;102287.69;10526312;28;19931;-63
2023/05/24 16:36:27;;;;;;;;;;;;;;;17.93;56.65;102278.88;10543240;28;19975;-63
2023/05/24 16:41:36;;;;;;;;;;;;;;;18.19;57.69;102285.13;10526151;28;19931;-62
2023/05/24 16:46:38;;;;;;;;;;;;;;;18.53;58.00;102280.22;10543353;28;20419;-63
2023/05/24 16:51:40;;;;;;;;;;;;;;;17.00;58.46;102275.03;10543702;28;19931;-62
2023/05/24 16:56:43;;;;;;;;;;;;;;;17.97;57.16;102269.78;10543488;28;20015;-63
2023/05/24 17:01:47;;;;;;;;;;;;;;;16.87;56.03;102278.41;10542697;28;20425;-63
2023/05/24 17:06:49;;;;;;;;;;;;;;;17.77;57.34;102267.53;10542959;28;20031;-63
2023/05/24 17:11:52;;;;;;;;;;;;;;;17.45;58.06;102270.47;10542202;28;19931;-63
2023/05/24 17:16:56;;;;;;;;;;;;;;;17.03;59.14;102267.75;10541535;28;21294;-63
2023/05/24 17:21:58;;;;;;;;;;;;;;;17.08;60.15;102264.84;10542640;28;20024;-62
2023/05/24 17:27:01;;;;;;;;;;;;;;;17.24;59.82;102275.31;10541736;28;20306;-63
2023/05/24 17:32:04;;;;;;;;;;;;;;;16.42;62.05;102281.97;10542240;28;20019;-63
2023/05/24 17:37:06;;;;;;;;;;;;;;;16.68;59.86;102283.09;10541342;28;20379;-63
2023/05/24 17:42:08;;;;;;;;;;;;;;;16.04;62.43;102291.19;10541052;28;19924;-63
2023/05/24 17:47:10;;;;;;;;;;;;;;;15.83;61.77;102293.22;10541379;28;19931;-63
2023/05/24 17:52:13;;;;;;;;;;;;;;;15.39;62.14;102302.63;10541512;28;19930;-62
2023/05/24 17:57:15;;;;;;;;;;;;;;;15.70;63.31;102308.88;10540847;28;19993;-62
2023/05/24 18:02:17;;;;;;;;;;;;;;;15.21;62.37;102308.88;10523299;28;19924;-62
2023/05/24 18:07:20;;;;;;;;;;;;;;;15.12;62.60;102315.50;10540797;28;19993;-62
2023/05/24 18:12:22;;;;;;;;;;;;;;;15.52;63.16;102312.53;10540032;28;19949;-63
2023/05/24 18:17:25;;;;;;;;;;;;;;;15.06;63.31;102307.91;10522720;28;19930;-63
2023/05/24 18:22:28;;;;;;;;;;;;;;;15.03;65.49;102305.44;10540621;28;19967;-63
2023/05/24 18:27:30;;;;;;;;;;;;;;;14.91;64.52;102304.31;10522452;28;19928;-63
2023/05/24 18:32:32;;;;;;;;;;;;;;;14.84;65.56;102306.41;10540682;28;19931;-62
2023/05/24 18:37:35;;;;;;;;;;;;;;;14.67;66.27;102311.66;10540215;28;19924;-63
2023/05/24 18:42:37;;;;;;;;;;;;;;;14.57;67.17;102313.03;10539429;28;20393;-63
2023/05/24 18:47:39;;;;;;;;;;;;;;;14.60;67.50;102312.91;10539907;28;19924;-62
2023/05/24 18:52:41;;;;;;;;;;;;;;;14.42;68.86;102322.53;10544456;28;19924;-62
2023/05/24 18:57:44;;;;;;;;;;;;;;;14.13;69.39;102322.19;10548611;28;19964;-62
2023/05/24 19:02:46;;;;;;;;;;;;;;;14.15;69.26;102328.22;10548301;28;19924;-63
2023/05/24 19:07:48;;;;;;;;;;;;;;;13.82;70.41;102328.03;10547920;28;19928;-63
2023/05/24 19:12:51;;;;;;;;;;;;;;;13.75;70.14;102330.97;10547117;28;19935;-63
2023/05/24 19:17:54;;;;;;;;;;;;;;;13.64;70.90;102335.03;10545651;28;19931;-63
2023/05/24 19:22:56;;;;;;;;;;;;;;;13.50;72.74;102339.16;10537745;28;19932;-63
2023/05/24 19:27:59;;;;;;;;;;;;;;;13.35;74.08;102342.47;10547202;28;20015;-63
2023/05/24 19:33:02;;;;;;;;;;;;;;;13.07;75.39;102346.25;10545366;28;20379;-63
2023/05/24 19:38:04;;;;;;;;;;;;;;;13.00;75.36;102355.34;10545213;28;19928;-63
2023/05/24 19:43:06;;;;;;;;;;;;;;;12.73;77.79;102352.97;10544647;28;20301;-63
2023/05/24 19:48:09;;;;;;;;;;;;;;;12.61;78.35;102359.56;10544893;28;19924;-63
2023/05/24 19:53:11;;;;;;;;;;;;;;;12.41;79.73;102362.16;10546294;28;19928;-62
2023/05/24 19:58:14;;;;;;;;;;;;;;;12.31;79.63;102374.81;10545844;28;19924;-63
2023/05/24 20:03:16;;;;;;;;;;;;;;;12.05;81.68;102387.19;10525902;28;19930;-63
2023/05/24 20:08:20;;;;;;;;;;;;;;;11.88;82.90;102379.91;10544912;28;20264;-63
2023/05/24 20:13:22;;;;;;;;;;;;;;;11.84;83.76;102386.19;10525908;28;19975;-62
2023/05/24 20:18:24;;;;;;;;;;;;;;;11.71;84.47;102387.53;10544278;28;19930;-63
2023/05/24 20:23:27;;;;;;;;;;;;;;;11.44;86.81;102395.50;10544307;28;20390;-63
2023/05/24 20:28:29;;;;;;;;;;;;;;;11.38;87.49;102400.97;10526813;28;19967;-63
2023/05/24 20:33:36;;;;;;;;;;;;;;;11.31;87.60;102407.31;10542141;28;20363;-63
2023/05/24 20:38:39;;;;;;;;;;;;;;;11.13;89.44;102411.47;10543862;28;20379;-63
2023/05/24 20:43:41;;;;;;;;;;;;;;;11.14;90.26;102416.63;10525347;28;19942;-63
2023/05/24 20:48:43;;;;;;;;;;;;;;;11.11;91.17;102411.50;10508775;28;19930;-63
2023/05/24 20:53:47;;;;;;;;;;;;;;;10.96;92.08;102415.50;10542008;28;19924;-63
2023/05/24 20:58:53;;;;;;;;;;;;;;;10.85;92.80;102416.75;10542668;28;19928;-62
2023/05/24 21:03:55;;;;;;;;;;;;;;;10.85;93.37;102419.38;10542709;28;19970;-63
2023/05/24 21:08:59;;;;;;;;;;;;;;;10.65;94.79;102425.25;10539667;28;19930;-63
2023/05/24 21:14:02;;;;;;;;;;;;;;;10.55;96.54;102428.16;10529252;28;20295;-63
2023/05/24 21:19:04;;;;;;;;;;;;;;;10.44;97.72;102432.00;10512558;28;19928;-63
2023/05/24 21:24:06;;;;;;;;;;;;;;;10.44;97.58;102437.25;10500607;28;20024;-63
2023/05/24 21:29:14;;;;;;;;;;;;;;;10.43;98.34;102441.63;10498876;28;19931;-63
2023/05/24 21:34:16;;;;;;;;;;;;;;;10.32;97.91;102441.97;10500275;28;19967;-63
2023/05/24 21:39:19;;;;;;;;;;;;;;;10.26;97.35;102444.72;10497524;28;19925;-62
2023/05/24 21:44:21;;;;;;;;;;;;;;;10.39;96.54;102443.50;10498241;28;19928;-63
2023/05/24 21:49:23;;;;;;;;;;;;;;;10.21;99.14;102452.72;10498679;28;19924;-63
2023/05/24 21:54:25;;;;;;;;;;;;;;;10.01;100.00;102463.75;10498684;28;20398;-63
2023/05/24 21:59:28;;;;;;;;;;;;;;;9.97;100.00;102458.63;10499368;28;20011;-63
2023/05/24 22:04:30;;;;;;;;;;;;;;;9.91;100.00;102459.69;10480528;28;19931;-63
2023/05/24 22:09:32;;;;;;;;;;;;;;;9.98;100.00;102463.84;10500027;28;19924;-63
2023/05/24 22:14:35;;;;;;;;;;;;;;;10.01;100.00;102475.97;10522788;28;19979;-63
2023/05/24 22:19:40;;;;;;;;;;;;;;;9.88;100.00;102472.84;10540616;28;19924;-63
2023/05/24 22:24:42;;;;;;;;;;;;;;;9.85;100.00;102481.66;10539063;28;19971;-62
2023/05/24 22:29:44;;;;;;;;;;;;;;;9.76;100.00;102476.66;10520887;28;19924;-63
2023/05/24 22:34:46;;;;;;;;;;;;;;;9.75;100.00;102484.53;10539423;28;19947;-63
2023/05/24 22:39:49;;;;;;;;;;;;;;;9.77;100.00;102488.84;10536282;28;19924;-63
2023/05/24 22:44:51;;;;;;;;;;;;;;;9.79;100.00;102496.66;10539566;28;19928;-62
2023/05/24 22:49:53;;;;;;;;;;;;;;;9.70;100.00;102496.88;10538913;28;19928;-62
2023/05/24 22:54:55;;;;;;;;;;;;;;;9.75;100.00;102495.88;10539279;28;21342;-63
2023/05/24 22:59:57;;;;;;;;;;;;;;;9.63;100.00;102493.56;10521150;28;19931;-63
2023/05/24 23:05:00;;;;;;;;;;;;;;;9.57;100.00;102493.75;10538175;28;19952;-63
2023/05/24 23:10:02;;;;;;;;;;;;;;;9.70;100.00;102496.88;10538297;28;19924;-62
2023/05/24 23:15:05;;;;;;;;;;;;;;;9.64;100.00;102505.75;10539226;28;19924;-62
2023/05/24 23:20:08;;;;;;;;;;;;;;;9.50;100.00;102511.34;10538137;28;19932;-63
2023/05/24 23:25:11;;;;;;;;;;;;;;;9.60;100.00;102506.72;10520255;28;19935;-63
2023/05/24 23:30:13;;;;;;;;;;;;;;;9.38;100.00;102504.69;10538413;28;20015;-62
2023/05/24 23:35:15;;;;;;;;;;;;;;;9.57;100.00;102502.44;10537630;28;19947;-63
2023/05/24 23:40:18;;;;;;;;;;;;;;;9.48;100.00;102492.22;10544293;28;19932;-62
2023/05/24 23:45:20;;;;;;;;;;;;;;;9.32;100.00;102502.22;10545015;28;19946;-63
2023/05/24 23:50:22;;;;;;;;;;;;;;;9.38;100.00;102498.56;10545691;28;20033;-62
2023/05/24 23:55:25;;;;;;;;;;;;;;;9.47;100.00;102500.97;10545070;28;19930;-62
